sensor_id;sensor_type;location;lat;lon;timestamp;P1;durP1;ratioP1;P2;durP2;ratioP2
61291;SDS011;47165;42.664;23.368;2024-02-28T00:04:14;10.18;;;5.15;;
61291;SDS011;47165;42.664;23.368;2024-02-28T00:06:39;13.07;;;7.43;;
61291;SDS011;47165;42.664;23.368;2024-02-28T00:09:05;14.45;;;6.40;;
61291;SDS011;47165;42.664;23.368;2024-02-28T00:11:30;8.13;;;5.50;;
61291;SDS011;47165;42.664;23.368;2024-02-28T00:13:55;10.38;;;4.90;;
61291;SDS011;47165;42.664;23.368;2024-02-28T00:16:21;8.05;;;4.18;;
61291;SDS011;47165;42.664;23.368;2024-02-28T00:18:47;9.57;;;5.20;;
61291;SDS011;47165;42.664;23.368;2024-02-28T00:21:13;10.70;;;5.10;;
61291;SDS011;47165;42.664;23.368;2024-02-28T00:23:38;16.98;;;6.40;;
61291;SDS011;47165;42.664;23.368;2024-02-28T00:26:03;11.23;;;6.22;;
61291;SDS011;47165;42.664;23.368;2024-02-28T00:28:29;12.38;;;6.38;;
61291;SDS011;47165;42.664;23.368;2024-02-28T00:30:54;13.00;;;6.15;;
61291;SDS011;47165;42.664;23.368;2024-02-28T00:33:20;12.93;;;5.90;;
61291;SDS011;47165;42.664;23.368;2024-02-28T00:35:45;11.85;;;6.15;;
61291;SDS011;47165;42.664;23.368;2024-02-28T00:38:11;11.55;;;6.15;;
61291;SDS011;47165;42.664;23.368;2024-02-28T00:40:36;14.60;;;6.03;;
61291;SDS011;47165;42.664;23.368;2024-02-28T00:43:02;13.57;;;7.07;;
61291;SDS011;47165;42.664;23.368;2024-02-28T00:45:28;14.35;;;7.22;;
61291;SDS011;47165;42.664;23.368;2024-02-28T00:47:53;13.23;;;6.50;;
61291;SDS011;47165;42.664;23.368;2024-02-28T00:50:20;10.27;;;6.43;;
61291;SDS011;47165;42.664;23.368;2024-02-28T00:52:46;12.23;;;6.20;;
61291;SDS011;47165;42.664;23.368;2024-02-28T00:55:12;8.48;;;4.72;;
61291;SDS011;47165;42.664;23.368;2024-02-28T00:57:37;9.18;;;5.55;;
61291;SDS011;47165;42.664;23.368;2024-02-28T01:00:03;10.27;;;5.40;;
61291;SDS011;47165;42.664;23.368;2024-02-28T01:02:31;11.73;;;5.72;;
61291;SDS011;47165;42.664;23.368;2024-02-28T01:04:57;8.13;;;5.47;;
61291;SDS011;47165;42.664;23.368;2024-02-28T01:07:22;18.00;;;7.28;;
61291;SDS011;47165;42.664;23.368;2024-02-28T01:09:48;15.25;;;4.80;;
61291;SDS011;47165;42.664;23.368;2024-02-28T01:12:13;14.57;;;6.55;;
61291;SDS011;47165;42.664;23.368;2024-02-28T01:14:39;10.77;;;6.38;;
61291;SDS011;47165;42.664;23.368;2024-02-28T01:17:04;9.40;;;6.20;;
61291;SDS011;47165;42.664;23.368;2024-02-28T01:19:30;17.50;;;6.68;;
61291;SDS011;47165;42.664;23.368;2024-02-28T01:21:56;15.82;;;8.45;;
61291;SDS011;47165;42.664;23.368;2024-02-28T01:24:22;15.77;;;8.18;;
61291;SDS011;47165;42.664;23.368;2024-02-28T01:26:48;13.38;;;6.55;;
61291;SDS011;47165;42.664;23.368;2024-02-28T01:29:13;14.50;;;6.13;;
61291;SDS011;47165;42.664;23.368;2024-02-28T01:31:39;17.00;;;6.97;;
61291;SDS011;47165;42.664;23.368;2024-02-28T01:34:04;10.80;;;6.47;;
61291;SDS011;47165;42.664;23.368;2024-02-28T01:36:30;16.65;;;7.55;;
61291;SDS011;47165;42.664;23.368;2024-02-28T01:38:55;12.50;;;6.22;;
61291;SDS011;47165;42.664;23.368;2024-02-28T01:41:21;10.50;;;5.63;;
61291;SDS011;47165;42.664;23.368;2024-02-28T01:43:46;7.60;;;4.97;;
61291;SDS011;47165;42.664;23.368;2024-02-28T01:46:20;9.82;;;4.95;;
61291;SDS011;47165;42.664;23.368;2024-02-28T01:48:49;12.98;;;6.32;;
61291;SDS011;47165;42.664;23.368;2024-02-28T01:51:15;12.45;;;6.07;;
61291;SDS011;47165;42.664;23.368;2024-02-28T01:53:41;11.73;;;5.53;;
61291;SDS011;47165;42.664;23.368;2024-02-28T01:56:07;12.43;;;6.75;;
61291;SDS011;47165;42.664;23.368;2024-02-28T01:58:33;10.70;;;6.15;;
61291;SDS011;47165;42.664;23.368;2024-02-28T02:01:00;13.63;;;6.82;;
61291;SDS011;47165;42.664;23.368;2024-02-28T02:03:28;16.42;;;6.78;;
61291;SDS011;47165;42.664;23.368;2024-02-28T02:05:53;10.35;;;5.43;;
61291;SDS011;47165;42.664;23.368;2024-02-28T02:08:19;11.05;;;4.72;;
61291;SDS011;47165;42.664;23.368;2024-02-28T02:10:47;8.80;;;5.05;;
61291;SDS011;47165;42.664;23.368;2024-02-28T02:13:13;22.67;;;7.40;;
61291;SDS011;47165;42.664;23.368;2024-02-28T02:15:38;12.98;;;6.55;;
61291;SDS011;47165;42.664;23.368;2024-02-28T02:18:03;11.38;;;5.90;;
61291;SDS011;47165;42.664;23.368;2024-02-28T02:20:30;12.13;;;6.00;;
61291;SDS011;47165;42.664;23.368;2024-02-28T02:22:57;10.23;;;5.70;;
61291;SDS011;47165;42.664;23.368;2024-02-28T02:25:23;11.05;;;6.38;;
61291;SDS011;47165;42.664;23.368;2024-02-28T02:27:48;11.10;;;5.88;;
61291;SDS011;47165;42.664;23.368;2024-02-28T02:30:14;8.55;;;5.20;;
61291;SDS011;47165;42.664;23.368;2024-02-28T02:32:40;9.80;;;4.57;;
61291;SDS011;47165;42.664;23.368;2024-02-28T02:35:05;9.15;;;4.93;;
61291;SDS011;47165;42.664;23.368;2024-02-28T02:37:32;10.10;;;5.88;;
61291;SDS011;47165;42.664;23.368;2024-02-28T02:39:59;9.65;;;5.40;;
61291;SDS011;47165;42.664;23.368;2024-02-28T02:42:24;8.55;;;5.18;;
61291;SDS011;47165;42.664;23.368;2024-02-28T02:44:49;10.57;;;4.93;;
61291;SDS011;47165;42.664;23.368;2024-02-28T02:47:15;11.25;;;5.30;;
61291;SDS011;47165;42.664;23.368;2024-02-28T02:49:40;7.35;;;4.25;;
61291;SDS011;47165;42.664;23.368;2024-02-28T02:52:06;9.38;;;4.93;;
61291;SDS011;47165;42.664;23.368;2024-02-28T02:54:31;11.35;;;5.03;;
61291;SDS011;47165;42.664;23.368;2024-02-28T02:56:57;9.88;;;6.43;;
61291;SDS011;47165;42.664;23.368;2024-02-28T02:59:22;10.32;;;5.38;;
61291;SDS011;47165;42.664;23.368;2024-02-28T03:01:49;10.48;;;4.95;;
61291;SDS011;47165;42.664;23.368;2024-02-28T03:04:15;11.30;;;5.50;;
61291;SDS011;47165;42.664;23.368;2024-02-28T03:06:40;9.20;;;5.68;;
61291;SDS011;47165;42.664;23.368;2024-02-28T03:09:07;9.35;;;5.00;;
61291;SDS011;47165;42.664;23.368;2024-02-28T03:11:32;11.15;;;4.65;;
61291;SDS011;47165;42.664;23.368;2024-02-28T03:14:00;14.00;;;5.00;;
61291;SDS011;47165;42.664;23.368;2024-02-28T03:16:26;10.20;;;5.90;;
61291;SDS011;47165;42.664;23.368;2024-02-28T03:18:51;10.82;;;5.25;;
61291;SDS011;47165;42.664;23.368;2024-02-28T03:23:46;6.38;;;4.10;;
61291;SDS011;47165;42.664;23.368;2024-02-28T03:26:11;10.32;;;4.15;;
61291;SDS011;47165;42.664;23.368;2024-02-28T03:28:37;8.75;;;4.80;;
61291;SDS011;47165;42.664;23.368;2024-02-28T03:31:02;9.02;;;4.45;;
61291;SDS011;47165;42.664;23.368;2024-02-28T03:33:28;7.70;;;4.50;;
61291;SDS011;47165;42.664;23.368;2024-02-28T03:35:56;9.63;;;5.07;;
61291;SDS011;47165;42.664;23.368;2024-02-28T03:38:22;10.75;;;5.65;;
61291;SDS011;47165;42.664;23.368;2024-02-28T03:40:47;8.15;;;4.95;;
61291;SDS011;47165;42.664;23.368;2024-02-28T03:43:14;8.95;;;5.05;;
61291;SDS011;47165;42.664;23.368;2024-02-28T03:45:39;9.52;;;5.45;;
61291;SDS011;47165;42.664;23.368;2024-02-28T03:48:05;13.68;;;5.47;;
61291;SDS011;47165;42.664;23.368;2024-02-28T03:50:30;8.73;;;5.07;;
61291;SDS011;47165;42.664;23.368;2024-02-28T03:52:56;10.80;;;6.18;;
61291;SDS011;47165;42.664;23.368;2024-02-28T03:55:21;10.35;;;4.65;;
61291;SDS011;47165;42.664;23.368;2024-02-28T03:57:47;7.93;;;5.05;;
61291;SDS011;47165;42.664;23.368;2024-02-28T04:00:13;12.40;;;4.68;;
61291;SDS011;47165;42.664;23.368;2024-02-28T04:02:39;8.65;;;4.63;;
61291;SDS011;47165;42.664;23.368;2024-02-28T04:05:04;11.10;;;5.05;;
61291;SDS011;47165;42.664;23.368;2024-02-28T04:07:30;9.05;;;4.78;;
61291;SDS011;47165;42.664;23.368;2024-02-28T04:09:56;8.70;;;5.22;;
61291;SDS011;47165;42.664;23.368;2024-02-28T04:12:21;8.70;;;5.05;;
61291;SDS011;47165;42.664;23.368;2024-02-28T04:14:47;9.25;;;4.22;;
61291;SDS011;47165;42.664;23.368;2024-02-28T04:17:13;8.57;;;4.25;;
61291;SDS011;47165;42.664;23.368;2024-02-28T04:19:39;10.50;;;5.05;;
61291;SDS011;47165;42.664;23.368;2024-02-28T04:22:04;9.57;;;4.07;;
61291;SDS011;47165;42.664;23.368;2024-02-28T04:24:30;7.75;;;4.45;;
61291;SDS011;47165;42.664;23.368;2024-02-28T04:26:56;6.88;;;4.28;;
61291;SDS011;47165;42.664;23.368;2024-02-28T04:29:23;10.45;;;4.05;;
61291;SDS011;47165;42.664;23.368;2024-02-28T04:31:49;8.45;;;4.57;;
61291;SDS011;47165;42.664;23.368;2024-02-28T04:34:14;9.25;;;4.95;;
61291;SDS011;47165;42.664;23.368;2024-02-28T04:36:40;9.43;;;5.53;;
61291;SDS011;47165;42.664;23.368;2024-02-28T04:39:05;7.07;;;4.18;;
61291;SDS011;47165;42.664;23.368;2024-02-28T04:41:32;10.20;;;5.07;;
61291;SDS011;47165;42.664;23.368;2024-02-28T04:43:59;10.85;;;4.00;;
61291;SDS011;47165;42.664;23.368;2024-02-28T04:46:24;9.00;;;4.00;;
61291;SDS011;47165;42.664;23.368;2024-02-28T04:48:50;11.27;;;5.43;;
61291;SDS011;47165;42.664;23.368;2024-02-28T04:51:15;11.35;;;4.30;;
61291;SDS011;47165;42.664;23.368;2024-02-28T04:53:44;10.27;;;4.93;;
61291;SDS011;47165;42.664;23.368;2024-02-28T04:56:09;11.25;;;5.07;;
61291;SDS011;47165;42.664;23.368;2024-02-28T04:58:36;10.27;;;4.32;;
61291;SDS011;47165;42.664;23.368;2024-02-28T05:01:02;10.93;;;5.65;;
61291;SDS011;47165;42.664;23.368;2024-02-28T05:03:28;12.02;;;6.07;;
61291;SDS011;47165;42.664;23.368;2024-02-28T05:05:54;7.82;;;4.25;;
61291;SDS011;47165;42.664;23.368;2024-02-28T05:08:20;11.30;;;5.57;;
61291;SDS011;47165;42.664;23.368;2024-02-28T05:10:46;9.05;;;4.50;;
61291;SDS011;47165;42.664;23.368;2024-02-28T05:13:11;10.63;;;5.13;;
61291;SDS011;47165;42.664;23.368;2024-02-28T05:15:37;6.80;;;3.88;;
61291;SDS011;47165;42.664;23.368;2024-02-28T05:18:02;7.72;;;4.20;;
61291;SDS011;47165;42.664;23.368;2024-02-28T05:20:28;8.15;;;4.20;;
61291;SDS011;47165;42.664;23.368;2024-02-28T05:22:54;10.45;;;4.95;;
61291;SDS011;47165;42.664;23.368;2024-02-28T05:25:20;8.15;;;4.93;;
61291;SDS011;47165;42.664;23.368;2024-02-28T05:27:45;11.85;;;5.82;;
61291;SDS011;47165;42.664;23.368;2024-02-28T05:30:11;9.75;;;4.88;;
61291;SDS011;47165;42.664;23.368;2024-02-28T05:32:37;9.93;;;6.40;;
61291;SDS011;47165;42.664;23.368;2024-02-28T05:35:02;11.43;;;6.07;;
61291;SDS011;47165;42.664;23.368;2024-02-28T05:37:28;11.45;;;5.55;;
61291;SDS011;47165;42.664;23.368;2024-02-28T05:39:53;12.70;;;6.05;;
61291;SDS011;47165;42.664;23.368;2024-02-28T05:42:19;10.20;;;4.78;;
61291;SDS011;47165;42.664;23.368;2024-02-28T05:44:50;12.38;;;5.47;;
61291;SDS011;47165;42.664;23.368;2024-02-28T05:47:15;10.65;;;4.50;;
61291;SDS011;47165;42.664;23.368;2024-02-28T05:49:42;8.63;;;4.22;;
61291;SDS011;47165;42.664;23.368;2024-02-28T05:52:07;10.40;;;4.85;;
61291;SDS011;47165;42.664;23.368;2024-02-28T05:54:33;13.75;;;5.80;;
61291;SDS011;47165;42.664;23.368;2024-02-28T05:57:01;13.02;;;6.13;;
61291;SDS011;47165;42.664;23.368;2024-02-28T05:59:27;11.30;;;4.88;;
61291;SDS011;47165;42.664;23.368;2024-02-28T06:01:52;8.88;;;4.30;;
61291;SDS011;47165;42.664;23.368;2024-02-28T06:04:18;7.28;;;4.57;;
61291;SDS011;47165;42.664;23.368;2024-02-28T06:06:44;8.13;;;4.05;;
61291;SDS011;47165;42.664;23.368;2024-02-28T06:09:09;12.45;;;5.55;;
61291;SDS011;47165;42.664;23.368;2024-02-28T06:11:35;12.65;;;6.60;;
61291;SDS011;47165;42.664;23.368;2024-02-28T06:14:01;15.05;;;6.25;;
61291;SDS011;47165;42.664;23.368;2024-02-28T06:16:29;10.57;;;5.57;;
61291;SDS011;47165;42.664;23.368;2024-02-28T06:18:54;9.93;;;5.40;;
61291;SDS011;47165;42.664;23.368;2024-02-28T06:21:23;10.48;;;5.78;;
61291;SDS011;47165;42.664;23.368;2024-02-28T06:23:48;11.90;;;6.05;;
61291;SDS011;47165;42.664;23.368;2024-02-28T06:26:14;17.05;;;7.95;;
61291;SDS011;47165;42.664;23.368;2024-02-28T06:28:42;13.65;;;7.05;;
61291;SDS011;47165;42.664;23.368;2024-02-28T06:31:17;14.07;;;6.38;;
61291;SDS011;47165;42.664;23.368;2024-02-28T06:33:46;11.48;;;5.90;;
61291;SDS011;47165;42.664;23.368;2024-02-28T06:36:11;12.55;;;5.22;;
61291;SDS011;47165;42.664;23.368;2024-02-28T06:38:37;12.00;;;5.22;;
61291;SDS011;47165;42.664;23.368;2024-02-28T06:41:03;10.70;;;6.88;;
61291;SDS011;47165;42.664;23.368;2024-02-28T06:43:29;12.48;;;5.57;;
61291;SDS011;47165;42.664;23.368;2024-02-28T06:45:55;13.30;;;5.43;;
61291;SDS011;47165;42.664;23.368;2024-02-28T06:48:21;9.93;;;5.68;;
61291;SDS011;47165;42.664;23.368;2024-02-28T06:50:46;11.77;;;5.97;;
61291;SDS011;47165;42.664;23.368;2024-02-28T06:53:12;11.15;;;5.75;;
61291;SDS011;47165;42.664;23.368;2024-02-28T06:55:37;10.93;;;4.97;;
61291;SDS011;47165;42.664;23.368;2024-02-28T06:58:04;13.90;;;6.13;;
61291;SDS011;47165;42.664;23.368;2024-02-28T07:00:29;9.55;;;5.95;;
61291;SDS011;47165;42.664;23.368;2024-02-28T07:02:56;14.85;;;6.85;;
61291;SDS011;47165;42.664;23.368;2024-02-28T07:05:21;11.40;;;6.13;;
61291;SDS011;47165;42.664;23.368;2024-02-28T07:07:47;9.98;;;5.90;;
61291;SDS011;47165;42.664;23.368;2024-02-28T07:10:12;10.25;;;4.80;;
61291;SDS011;47165;42.664;23.368;2024-02-28T07:12:38;15.82;;;8.10;;
61291;SDS011;47165;42.664;23.368;2024-02-28T07:15:04;12.15;;;6.68;;
61291;SDS011;47165;42.664;23.368;2024-02-28T07:17:30;16.63;;;6.10;;
61291;SDS011;47165;42.664;23.368;2024-02-28T07:19:56;10.10;;;5.95;;
61291;SDS011;47165;42.664;23.368;2024-02-28T07:22:21;12.85;;;7.60;;
61291;SDS011;47165;42.664;23.368;2024-02-28T07:24:47;10.73;;;5.90;;
61291;SDS011;47165;42.664;23.368;2024-02-28T07:27:12;11.55;;;6.57;;
61291;SDS011;47165;42.664;23.368;2024-02-28T07:29:38;16.75;;;8.65;;
61291;SDS011;47165;42.664;23.368;2024-02-28T07:32:03;11.93;;;6.80;;
61291;SDS011;47165;42.664;23.368;2024-02-28T07:34:29;13.98;;;7.03;;
61291;SDS011;47165;42.664;23.368;2024-02-28T07:36:55;14.23;;;7.72;;
61291;SDS011;47165;42.664;23.368;2024-02-28T07:39:20;11.80;;;5.30;;
61291;SDS011;47165;42.664;23.368;2024-02-28T07:41:46;12.75;;;5.85;;
61291;SDS011;47165;42.664;23.368;2024-02-28T07:44:11;14.75;;;7.97;;
61291;SDS011;47165;42.664;23.368;2024-02-28T07:46:37;14.68;;;7.75;;
61291;SDS011;47165;42.664;23.368;2024-02-28T07:49:02;14.60;;;7.53;;
61291;SDS011;47165;42.664;23.368;2024-02-28T07:51:28;16.50;;;7.57;;
61291;SDS011;47165;42.664;23.368;2024-02-28T07:53:54;18.65;;;8.43;;
61291;SDS011;47165;42.664;23.368;2024-02-28T07:56:20;19.48;;;9.68;;
61291;SDS011;47165;42.664;23.368;2024-02-28T07:58:46;23.50;;;9.43;;
61291;SDS011;47165;42.664;23.368;2024-02-28T08:01:12;18.33;;;8.80;;
61291;SDS011;47165;42.664;23.368;2024-02-28T08:03:38;15.90;;;8.18;;
61291;SDS011;47165;42.664;23.368;2024-02-28T08:06:03;20.52;;;9.75;;
61291;SDS011;47165;42.664;23.368;2024-02-28T08:08:29;12.00;;;5.60;;
61291;SDS011;47165;42.664;23.368;2024-02-28T08:10:55;15.88;;;6.28;;
61291;SDS011;47165;42.664;23.368;2024-02-28T08:13:22;16.27;;;8.45;;
61291;SDS011;47165;42.664;23.368;2024-02-28T08:15:47;21.40;;;10.93;;
61291;SDS011;47165;42.664;23.368;2024-02-28T08:18:12;16.85;;;9.43;;
61291;SDS011;47165;42.664;23.368;2024-02-28T08:20:38;15.43;;;7.97;;
61291;SDS011;47165;42.664;23.368;2024-02-28T08:23:04;24.58;;;9.98;;
61291;SDS011;47165;42.664;23.368;2024-02-28T08:25:31;24.88;;;11.45;;
61291;SDS011;47165;42.664;23.368;2024-02-28T08:27:56;25.58;;;10.68;;
61291;SDS011;47165;42.664;23.368;2024-02-28T08:30:22;28.17;;;12.13;;
61291;SDS011;47165;42.664;23.368;2024-02-28T08:32:47;30.63;;;12.90;;
61291;SDS011;47165;42.664;23.368;2024-02-28T08:35:13;15.95;;;9.13;;
61291;SDS011;47165;42.664;23.368;2024-02-28T08:37:39;25.00;;;10.73;;
61291;SDS011;47165;42.664;23.368;2024-02-28T08:40:06;27.50;;;12.45;;
61291;SDS011;47165;42.664;23.368;2024-02-28T08:42:32;14.68;;;6.25;;
61291;SDS011;47165;42.664;23.368;2024-02-28T08:44:57;26.40;;;11.82;;
61291;SDS011;47165;42.664;23.368;2024-02-28T08:47:25;18.65;;;9.23;;
61291;SDS011;47165;42.664;23.368;2024-02-28T08:49:53;17.63;;;8.57;;
61291;SDS011;47165;42.664;23.368;2024-02-28T08:52:19;24.85;;;11.00;;
61291;SDS011;47165;42.664;23.368;2024-02-28T08:54:46;23.00;;;9.60;;
61291;SDS011;47165;42.664;23.368;2024-02-28T08:57:12;29.42;;;13.77;;
61291;SDS011;47165;42.664;23.368;2024-02-28T08:59:37;19.58;;;9.73;;
61291;SDS011;47165;42.664;23.368;2024-02-28T09:02:03;16.73;;;9.65;;
61291;SDS011;47165;42.664;23.368;2024-02-28T09:04:29;16.92;;;7.20;;
61291;SDS011;47165;42.664;23.368;2024-02-28T09:06:54;14.90;;;8.27;;
61291;SDS011;47165;42.664;23.368;2024-02-28T09:09:20;13.50;;;8.52;;
61291;SDS011;47165;42.664;23.368;2024-02-28T09:11:45;18.00;;;8.80;;
61291;SDS011;47165;42.664;23.368;2024-02-28T09:14:11;15.90;;;8.10;;
61291;SDS011;47165;42.664;23.368;2024-02-28T09:16:36;19.08;;;8.23;;
61291;SDS011;47165;42.664;23.368;2024-02-28T09:19:03;15.48;;;8.68;;
61291;SDS011;47165;42.664;23.368;2024-02-28T09:21:29;19.80;;;9.77;;
61291;SDS011;47165;42.664;23.368;2024-02-28T09:23:55;21.35;;;10.05;;
61291;SDS011;47165;42.664;23.368;2024-02-28T09:26:20;17.48;;;8.88;;
61291;SDS011;47165;42.664;23.368;2024-02-28T09:28:45;25.13;;;11.80;;
61291;SDS011;47165;42.664;23.368;2024-02-28T09:31:11;17.77;;;8.73;;
61291;SDS011;47165;42.664;23.368;2024-02-28T09:33:37;16.13;;;8.70;;
61291;SDS011;47165;42.664;23.368;2024-02-28T09:36:03;18.73;;;8.45;;
61291;SDS011;47165;42.664;23.368;2024-02-28T09:38:29;16.33;;;8.63;;
61291;SDS011;47165;42.664;23.368;2024-02-28T09:40:57;13.02;;;7.35;;
61291;SDS011;47165;42.664;23.368;2024-02-28T09:43:31;17.90;;;9.15;;
61291;SDS011;47165;42.664;23.368;2024-02-28T09:46:05;16.35;;;8.13;;
61291;SDS011;47165;42.664;23.368;2024-02-28T09:48:31;16.75;;;8.50;;
61291;SDS011;47165;42.664;23.368;2024-02-28T09:50:57;19.35;;;8.95;;
61291;SDS011;47165;42.664;23.368;2024-02-28T09:53:24;21.70;;;10.02;;
61291;SDS011;47165;42.664;23.368;2024-02-28T09:55:50;18.55;;;8.57;;
61291;SDS011;47165;42.664;23.368;2024-02-28T09:58:16;14.05;;;7.60;;
61291;SDS011;47165;42.664;23.368;2024-02-28T10:00:43;16.52;;;7.80;;
61291;SDS011;47165;42.664;23.368;2024-02-28T10:03:11;13.95;;;7.57;;
61291;SDS011;47165;42.664;23.368;2024-02-28T10:05:38;18.98;;;8.95;;
61291;SDS011;47165;42.664;23.368;2024-02-28T10:08:05;14.50;;;7.40;;
61291;SDS011;47165;42.664;23.368;2024-02-28T10:10:31;19.23;;;9.52;;
61291;SDS011;47165;42.664;23.368;2024-02-28T10:12:56;13.80;;;7.25;;
61291;SDS011;47165;42.664;23.368;2024-02-28T10:15:23;16.98;;;7.13;;
61291;SDS011;47165;42.664;23.368;2024-02-28T10:17:51;16.23;;;8.63;;
61291;SDS011;47165;42.664;23.368;2024-02-28T10:20:17;17.15;;;7.47;;
61291;SDS011;47165;42.664;23.368;2024-02-28T10:22:42;12.35;;;6.47;;
61291;SDS011;47165;42.664;23.368;2024-02-28T10:25:08;13.55;;;6.65;;
61291;SDS011;47165;42.664;23.368;2024-02-28T10:27:33;12.07;;;5.95;;
61291;SDS011;47165;42.664;23.368;2024-02-28T10:30:00;14.25;;;5.63;;
61291;SDS011;47165;42.664;23.368;2024-02-28T10:32:30;13.13;;;5.60;;
61291;SDS011;47165;42.664;23.368;2024-02-28T10:34:56;13.52;;;6.32;;
61291;SDS011;47165;42.664;23.368;2024-02-28T10:37:23;17.88;;;7.70;;
61291;SDS011;47165;42.664;23.368;2024-02-28T10:39:50;12.45;;;6.20;;
61291;SDS011;47165;42.664;23.368;2024-02-28T10:42:18;16.40;;;5.90;;
61291;SDS011;47165;42.664;23.368;2024-02-28T10:44:48;15.07;;;6.60;;
61291;SDS011;47165;42.664;23.368;2024-02-28T10:47:17;14.05;;;5.32;;
61291;SDS011;47165;42.664;23.368;2024-02-28T10:49:43;8.05;;;4.35;;
61291;SDS011;47165;42.664;23.368;2024-02-28T10:52:11;8.18;;;4.78;;
61291;SDS011;47165;42.664;23.368;2024-02-28T10:54:40;10.93;;;4.93;;
61291;SDS011;47165;42.664;23.368;2024-02-28T10:57:07;7.15;;;4.63;;
61291;SDS011;47165;42.664;23.368;2024-02-28T10:59:34;11.77;;;4.82;;
61291;SDS011;47165;42.664;23.368;2024-02-28T11:02:02;14.82;;;5.80;;
61291;SDS011;47165;42.664;23.368;2024-02-28T11:04:28;11.13;;;5.45;;
61291;SDS011;47165;42.664;23.368;2024-02-28T11:06:55;11.80;;;5.25;;
61291;SDS011;47165;42.664;23.368;2024-02-28T11:09:22;12.55;;;6.95;;
61291;SDS011;47165;42.664;23.368;2024-02-28T11:11:51;9.93;;;5.68;;
61291;SDS011;47165;42.664;23.368;2024-02-28T11:14:17;11.80;;;6.88;;
61291;SDS011;47165;42.664;23.368;2024-02-28T11:16:58;18.75;;;6.93;;
61291;SDS011;47165;42.664;23.368;2024-02-28T11:19:28;13.45;;;5.32;;
61291;SDS011;47165;42.664;23.368;2024-02-28T11:21:56;10.75;;;5.80;;
61291;SDS011;47165;42.664;23.368;2024-02-28T11:24:23;9.88;;;4.80;;
61291;SDS011;47165;42.664;23.368;2024-02-28T11:26:52;15.00;;;6.90;;
61291;SDS011;47165;42.664;23.368;2024-02-28T11:29:27;10.68;;;5.95;;
61291;SDS011;47165;42.664;23.368;2024-02-28T11:31:54;10.35;;;5.82;;
61291;SDS011;47165;42.664;23.368;2024-02-28T11:34:20;10.25;;;5.70;;
61291;SDS011;47165;42.664;23.368;2024-02-28T11:36:46;11.35;;;5.78;;
61291;SDS011;47165;42.664;23.368;2024-02-28T11:39:16;11.98;;;4.88;;
61291;SDS011;47165;42.664;23.368;2024-02-28T11:41:42;11.25;;;5.18;;
61291;SDS011;47165;42.664;23.368;2024-02-28T11:44:12;8.68;;;5.38;;
61291;SDS011;47165;42.664;23.368;2024-02-28T11:46:43;14.23;;;6.57;;
61291;SDS011;47165;42.664;23.368;2024-02-28T11:49:12;8.13;;;4.53;;
61291;SDS011;47165;42.664;23.368;2024-02-28T11:51:41;11.98;;;5.35;;
61291;SDS011;47165;42.664;23.368;2024-02-28T11:54:10;13.10;;;5.43;;
61291;SDS011;47165;42.664;23.368;2024-02-28T11:56:37;9.10;;;5.43;;
61291;SDS011;47165;42.664;23.368;2024-02-28T11:59:03;12.80;;;5.35;;
61291;SDS011;47165;42.664;23.368;2024-02-28T12:01:36;9.00;;;5.20;;
61291;SDS011;47165;42.664;23.368;2024-02-28T12:04:06;12.77;;;6.00;;
61291;SDS011;47165;42.664;23.368;2024-02-28T12:06:33;7.13;;;3.97;;
61291;SDS011;47165;42.664;23.368;2024-02-28T12:09:05;13.88;;;5.07;;
61291;SDS011;47165;42.664;23.368;2024-02-28T12:11:33;7.07;;;4.13;;
61291;SDS011;47165;42.664;23.368;2024-02-28T12:14:02;9.10;;;4.68;;
61291;SDS011;47165;42.664;23.368;2024-02-28T12:16:29;9.77;;;3.97;;
61291;SDS011;47165;42.664;23.368;2024-02-28T12:18:55;8.13;;;4.90;;
61291;SDS011;47165;42.664;23.368;2024-02-28T12:21:21;9.80;;;5.47;;
61291;SDS011;47165;42.664;23.368;2024-02-28T12:23:47;10.43;;;4.63;;
61291;SDS011;47165;42.664;23.368;2024-02-28T12:26:18;10.95;;;6.28;;
61291;SDS011;47165;42.664;23.368;2024-02-28T12:28:44;8.10;;;5.10;;
61291;SDS011;47165;42.664;23.368;2024-02-28T12:31:11;11.75;;;5.15;;
61291;SDS011;47165;42.664;23.368;2024-02-28T12:33:38;9.88;;;4.60;;
61291;SDS011;47165;42.664;23.368;2024-02-28T12:36:05;10.93;;;5.90;;
61291;SDS011;47165;42.664;23.368;2024-02-28T12:38:31;12.35;;;6.10;;
61291;SDS011;47165;42.664;23.368;2024-02-28T12:40:58;10.07;;;5.20;;
61291;SDS011;47165;42.664;23.368;2024-02-28T12:43:23;13.77;;;5.20;;
61291;SDS011;47165;42.664;23.368;2024-02-28T12:45:51;9.15;;;4.32;;
61291;SDS011;47165;42.664;23.368;2024-02-28T12:48:16;13.52;;;5.45;;
61291;SDS011;47165;42.664;23.368;2024-02-28T12:50:42;11.07;;;5.00;;
61291;SDS011;47165;42.664;23.368;2024-02-28T12:53:07;13.50;;;5.65;;
61291;SDS011;47165;42.664;23.368;2024-02-28T12:55:33;10.88;;;4.75;;
61291;SDS011;47165;42.664;23.368;2024-02-28T12:57:58;9.07;;;4.60;;
61291;SDS011;47165;42.664;23.368;2024-02-28T13:00:26;6.53;;;4.18;;
61291;SDS011;47165;42.664;23.368;2024-02-28T13:02:51;8.88;;;4.20;;
61291;SDS011;47165;42.664;23.368;2024-02-28T13:05:17;7.82;;;4.38;;
61291;SDS011;47165;42.664;23.368;2024-02-28T13:07:42;10.27;;;4.57;;
61291;SDS011;47165;42.664;23.368;2024-02-28T13:10:08;10.40;;;4.75;;
61291;SDS011;47165;42.664;23.368;2024-02-28T13:12:34;7.35;;;3.60;;
61291;SDS011;47165;42.664;23.368;2024-02-28T13:14:59;8.15;;;3.85;;
61291;SDS011;47165;42.664;23.368;2024-02-28T13:17:25;6.30;;;3.83;;
61291;SDS011;47165;42.664;23.368;2024-02-28T13:19:51;5.65;;;3.75;;
61291;SDS011;47165;42.664;23.368;2024-02-28T13:22:16;10.52;;;4.20;;
61291;SDS011;47165;42.664;23.368;2024-02-28T13:24:42;6.07;;;4.25;;
61291;SDS011;47165;42.664;23.368;2024-02-28T13:27:07;10.13;;;3.80;;
61291;SDS011;47165;42.664;23.368;2024-02-28T13:29:34;7.43;;;3.80;;
61291;SDS011;47165;42.664;23.368;2024-02-28T13:32:00;6.82;;;3.63;;
61291;SDS011;47165;42.664;23.368;2024-02-28T13:34:26;8.98;;;4.65;;
61291;SDS011;47165;42.664;23.368;2024-02-28T13:36:52;9.23;;;4.15;;
61291;SDS011;47165;42.664;23.368;2024-02-28T13:39:17;9.07;;;4.13;;
61291;SDS011;47165;42.664;23.368;2024-02-28T13:41:43;10.43;;;4.30;;
61291;SDS011;47165;42.664;23.368;2024-02-28T13:44:09;6.07;;;3.47;;
61291;SDS011;47165;42.664;23.368;2024-02-28T13:46:35;7.97;;;3.58;;
61291;SDS011;47165;42.664;23.368;2024-02-28T13:49:01;9.55;;;3.85;;
61291;SDS011;47165;42.664;23.368;2024-02-28T13:51:26;7.68;;;3.08;;
61291;SDS011;47165;42.664;23.368;2024-02-28T13:53:52;6.47;;;3.65;;
61291;SDS011;47165;42.664;23.368;2024-02-28T13:56:19;10.15;;;3.60;;
61291;SDS011;47165;42.664;23.368;2024-02-28T13:58:45;7.57;;;4.03;;
61291;SDS011;47165;42.664;23.368;2024-02-28T14:01:11;7.10;;;3.03;;
61291;SDS011;47165;42.664;23.368;2024-02-28T14:03:37;10.48;;;3.90;;
61291;SDS011;47165;42.664;23.368;2024-02-28T14:06:03;7.30;;;2.92;;
61291;SDS011;47165;42.664;23.368;2024-02-28T14:08:29;9.43;;;5.07;;
61291;SDS011;47165;42.664;23.368;2024-02-28T14:10:55;6.63;;;3.25;;
61291;SDS011;47165;42.664;23.368;2024-02-28T14:13:20;8.57;;;3.22;;
61291;SDS011;47165;42.664;23.368;2024-02-28T14:15:46;4.00;;;2.20;;
61291;SDS011;47165;42.664;23.368;2024-02-28T14:18:12;5.88;;;3.40;;
61291;SDS011;47165;42.664;23.368;2024-02-28T14:20:37;5.45;;;2.97;;
61291;SDS011;47165;42.664;23.368;2024-02-28T14:23:03;6.97;;;3.30;;
61291;SDS011;47165;42.664;23.368;2024-02-28T14:25:30;9.10;;;3.67;;